sensor_id;sensor_type;location;lat;lon;timestamp;P1;durP1;ratioP1;P2;durP2;ratioP2
41263;SDS011;26998;48.714;9.414;2023-08-06T00:01:52;12.50;;;10.77;;
41263;SDS011;26998;48.714;9.414;2023-08-06T00:04:19;12.75;;;10.63;;
41263;SDS011;26998;48.714;9.414;2023-08-06T00:06:45;13.32;;;10.25;;
41263;SDS011;26998;48.714;9.414;2023-08-06T00:09:13;11.18;;;9.85;;
41263;SDS011;26998;48.714;9.414;2023-08-06T00:11:39;14.98;;;10.60;;
41263;SDS011;26998;48.714;9.414;2023-08-06T00:14:06;14.45;;;9.95;;
41263;SDS011;26998;48.714;9.414;2023-08-06T00:16:34;11.68;;;10.30;;
41263;SDS011;26998;48.714;9.414;2023-08-06T00:19:00;12.35;;;10.45;;
41263;SDS011;26998;48.714;9.414;2023-08-06T00:21:27;15.98;;;11.90;;
41263;SDS011;26998;48.714;9.414;2023-08-06T00:23:53;13.75;;;11.57;;
41263;SDS011;26998;48.714;9.414;2023-08-06T00:26:20;16.05;;;12.85;;
41263;SDS011;26998;48.714;9.414;2023-08-06T00:28:47;14.52;;;12.00;;
41263;SDS011;26998;48.714;9.414;2023-08-06T00:31:13;14.10;;;11.68;;
41263;SDS011;26998;48.714;9.414;2023-08-06T00:33:40;15.60;;;11.98;;
41263;SDS011;26998;48.714;9.414;2023-08-06T00:36:07;13.63;;;12.20;;
41263;SDS011;26998;48.714;9.414;2023-08-06T00:38:33;21.08;;;14.57;;
41263;SDS011;26998;48.714;9.414;2023-08-06T00:41:01;20.80;;;15.82;;
41263;SDS011;26998;48.714;9.414;2023-08-06T00:43:28;18.10;;;14.32;;
41263;SDS011;26998;48.714;9.414;2023-08-06T00:45:55;18.13;;;15.27;;
41263;SDS011;26998;48.714;9.414;2023-08-06T00:48:22;17.88;;;14.68;;
41263;SDS011;26998;48.714;9.414;2023-08-06T00:50:48;18.90;;;14.90;;
41263;SDS011;26998;48.714;9.414;2023-08-06T00:53:15;17.20;;;14.15;;
41263;SDS011;26998;48.714;9.414;2023-08-06T00:55:43;20.05;;;14.55;;
41263;SDS011;26998;48.714;9.414;2023-08-06T00:58:11;17.85;;;13.65;;
41263;SDS011;26998;48.714;9.414;2023-08-06T01:00:40;17.45;;;14.82;;
41263;SDS011;26998;48.714;9.414;2023-08-06T01:03:09;15.50;;;13.93;;
41263;SDS011;26998;48.714;9.414;2023-08-06T01:05:35;21.00;;;14.98;;
41263;SDS011;26998;48.714;9.414;2023-08-06T01:08:12;18.63;;;14.70;;
41263;SDS011;26998;48.714;9.414;2023-08-06T01:16:25;16.50;;;13.73;;
41263;SDS011;26998;48.714;9.414;2023-08-06T01:18:55;14.93;;;13.30;;
41263;SDS011;26998;48.714;9.414;2023-08-06T01:21:23;17.65;;;14.77;;
41263;SDS011;26998;48.714;9.414;2023-08-06T01:23:50;16.58;;;13.35;;
41263;SDS011;26998;48.714;9.414;2023-08-06T01:32:04;18.52;;;14.85;;
41263;SDS011;26998;48.714;9.414;2023-08-06T01:34:33;15.88;;;13.10;;
41263;SDS011;26998;48.714;9.414;2023-08-06T01:37:00;22.42;;;14.98;;
41263;SDS011;26998;48.714;9.414;2023-08-06T01:39:31;20.15;;;15.73;;
41263;SDS011;26998;48.714;9.414;2023-08-06T01:42:03;19.88;;;14.45;;
41263;SDS011;26998;48.714;9.414;2023-08-06T01:44:30;18.38;;;15.50;;
41263;SDS011;26998;48.714;9.414;2023-08-06T01:46:57;17.15;;;13.70;;
41263;SDS011;26998;48.714;9.414;2023-08-06T01:49:23;19.80;;;15.35;;
41263;SDS011;26998;48.714;9.414;2023-08-06T01:51:50;19.65;;;15.40;;
41263;SDS011;26998;48.714;9.414;2023-08-06T01:54:19;20.90;;;15.32;;
41263;SDS011;26998;48.714;9.414;2023-08-06T01:56:46;21.17;;;15.55;;
41263;SDS011;26998;48.714;9.414;2023-08-06T01:59:15;22.08;;;15.57;;
41263;SDS011;26998;48.714;9.414;2023-08-06T02:01:42;17.40;;;14.65;;
41263;SDS011;26998;48.714;9.414;2023-08-06T02:04:08;19.10;;;15.20;;
41263;SDS011;26998;48.714;9.414;2023-08-06T02:06:35;22.30;;;15.93;;
41263;SDS011;26998;48.714;9.414;2023-08-06T02:09:02;18.35;;;15.50;;
41263;SDS011;26998;48.714;9.414;2023-08-06T02:11:28;17.90;;;15.75;;
41263;SDS011;26998;48.714;9.414;2023-08-06T02:13:55;23.10;;;15.07;;
41263;SDS011;26998;48.714;9.414;2023-08-06T02:16:22;17.20;;;13.93;;
41263;SDS011;26998;48.714;9.414;2023-08-06T02:18:49;15.73;;;12.98;;
41263;SDS011;26998;48.714;9.414;2023-08-06T02:21:15;20.52;;;14.18;;
41263;SDS011;26998;48.714;9.414;2023-08-06T02:23:42;19.40;;;12.73;;
41263;SDS011;26998;48.714;9.414;2023-08-06T02:26:08;16.33;;;12.35;;
41263;SDS011;26998;48.714;9.414;2023-08-06T02:28:35;15.57;;;12.32;;
41263;SDS011;26998;48.714;9.414;2023-08-06T02:31:02;17.67;;;13.60;;
41263;SDS011;26998;48.714;9.414;2023-08-06T02:33:29;14.30;;;11.27;;
41263;SDS011;26998;48.714;9.414;2023-08-06T02:35:59;13.98;;;11.52;;
41263;SDS011;26998;48.714;9.414;2023-08-06T02:38:26;14.07;;;11.15;;
41263;SDS011;26998;48.714;9.414;2023-08-06T02:40:53;13.70;;;10.90;;
41263;SDS011;26998;48.714;9.414;2023-08-06T02:43:19;13.45;;;11.02;;
41263;SDS011;26998;48.714;9.414;2023-08-06T02:45:46;16.08;;;11.50;;
41263;SDS011;26998;48.714;9.414;2023-08-06T02:48:12;13.40;;;10.52;;
41263;SDS011;26998;48.714;9.414;2023-08-06T02:50:40;14.45;;;11.05;;
41263;SDS011;26998;48.714;9.414;2023-08-06T02:53:08;16.85;;;12.10;;
41263;SDS011;26998;48.714;9.414;2023-08-06T02:55:35;15.88;;;11.55;;
41263;SDS011;26998;48.714;9.414;2023-08-06T02:58:03;17.90;;;13.38;;
41263;SDS011;26998;48.714;9.414;2023-08-06T03:00:33;17.70;;;13.18;;
41263;SDS011;26998;48.714;9.414;2023-08-06T03:02:59;11.65;;;9.38;;
41263;SDS011;26998;48.714;9.414;2023-08-06T03:05:26;9.50;;;7.47;;
41263;SDS011;26998;48.714;9.414;2023-08-06T03:07:52;7.63;;;5.20;;
41263;SDS011;26998;48.714;9.414;2023-08-06T03:10:19;7.28;;;5.05;;
41263;SDS011;26998;48.714;9.414;2023-08-06T03:12:45;7.78;;;5.05;;
41263;SDS011;26998;48.714;9.414;2023-08-06T03:15:12;6.38;;;5.03;;
41263;SDS011;26998;48.714;9.414;2023-08-06T03:17:40;4.47;;;3.90;;
41263;SDS011;26998;48.714;9.414;2023-08-06T03:20:08;7.22;;;4.07;;
41263;SDS011;26998;48.714;9.414;2023-08-06T03:22:35;6.30;;;4.57;;
41263;SDS011;26998;48.714;9.414;2023-08-06T03:25:02;11.07;;;4.30;;
41263;SDS011;26998;48.714;9.414;2023-08-06T03:27:30;8.02;;;4.65;;
41263;SDS011;26998;48.714;9.414;2023-08-06T03:29:57;7.40;;;4.68;;
41263;SDS011;26998;48.714;9.414;2023-08-06T03:32:24;6.95;;;4.90;;
41263;SDS011;26998;48.714;9.414;2023-08-06T03:34:50;11.70;;;5.40;;
41263;SDS011;26998;48.714;9.414;2023-08-06T03:37:17;7.43;;;5.85;;
41263;SDS011;26998;48.714;9.414;2023-08-06T03:39:44;7.78;;;5.53;;
41263;SDS011;26998;48.714;9.414;2023-08-06T03:42:10;10.27;;;7.75;;
41263;SDS011;26998;48.714;9.414;2023-08-06T03:44:37;11.85;;;10.07;;
41263;SDS011;26998;48.714;9.414;2023-08-06T03:47:03;11.75;;;9.38;;
41263;SDS011;26998;48.714;9.414;2023-08-06T03:49:30;11.25;;;8.15;;
41263;SDS011;26998;48.714;9.414;2023-08-06T03:51:57;10.02;;;7.22;;
41263;SDS011;26998;48.714;9.414;2023-08-06T03:54:23;12.40;;;6.15;;
41263;SDS011;26998;48.714;9.414;2023-08-06T03:56:50;11.45;;;7.22;;
41263;SDS011;26998;48.714;9.414;2023-08-06T03:59:16;9.35;;;7.50;;
41263;SDS011;26998;48.714;9.414;2023-08-06T04:01:43;13.95;;;9.32;;
41263;SDS011;26998;48.714;9.414;2023-08-06T04:04:10;11.23;;;8.85;;
41263;SDS011;26998;48.714;9.414;2023-08-06T04:06:37;16.33;;;9.52;;
41263;SDS011;26998;48.714;9.414;2023-08-06T04:09:07;12.38;;;9.95;;
41263;SDS011;26998;48.714;9.414;2023-08-06T04:11:34;12.68;;;9.10;;
41263;SDS011;26998;48.714;9.414;2023-08-06T04:14:03;13.13;;;9.40;;
41263;SDS011;26998;48.714;9.414;2023-08-06T04:16:31;12.23;;;8.77;;
41263;SDS011;26998;48.714;9.414;2023-08-06T04:18:58;11.00;;;9.25;;
41263;SDS011;26998;48.714;9.414;2023-08-06T04:21:25;12.25;;;8.80;;
41263;SDS011;26998;48.714;9.414;2023-08-06T04:23:55;11.05;;;7.65;;
41263;SDS011;26998;48.714;9.414;2023-08-06T04:26:23;6.57;;;4.88;;
41263;SDS011;26998;48.714;9.414;2023-08-06T04:28:50;8.77;;;6.40;;
41263;SDS011;26998;48.714;9.414;2023-08-06T04:31:17;8.30;;;5.43;;
41263;SDS011;26998;48.714;9.414;2023-08-06T04:33:44;5.10;;;4.60;;
41263;SDS011;26998;48.714;9.414;2023-08-06T04:36:12;6.65;;;5.30;;
41263;SDS011;26998;48.714;9.414;2023-08-06T04:38:39;9.60;;;6.00;;
41263;SDS011;26998;48.714;9.414;2023-08-06T04:41:06;5.82;;;4.05;;
41263;SDS011;26998;48.714;9.414;2023-08-06T04:43:34;5.03;;;3.47;;
41263;SDS011;26998;48.714;9.414;2023-08-06T04:46:01;6.30;;;3.97;;
41263;SDS011;26998;48.714;9.414;2023-08-06T04:48:28;7.00;;;2.92;;
41263;SDS011;26998;48.714;9.414;2023-08-06T04:50:55;7.57;;;3.30;;
41263;SDS011;26998;48.714;9.414;2023-08-06T04:53:22;5.93;;;3.78;;
41263;SDS011;26998;48.714;9.414;2023-08-06T04:55:49;6.43;;;3.10;;
41263;SDS011;26998;48.714;9.414;2023-08-06T04:58:16;4.78;;;3.20;;
41263;SDS011;26998;48.714;9.414;2023-08-06T05:00:43;5.75;;;3.20;;
41263;SDS011;26998;48.714;9.414;2023-08-06T05:03:10;3.45;;;2.78;;
41263;SDS011;26998;48.714;9.414;2023-08-06T05:05:39;3.88;;;3.15;;
41263;SDS011;26998;48.714;9.414;2023-08-06T05:08:07;5.63;;;3.10;;
41263;SDS011;26998;48.714;9.414;2023-08-06T05:10:35;3.97;;;2.63;;
41263;SDS011;26998;48.714;9.414;2023-08-06T05:13:02;4.28;;;2.47;;
41263;SDS011;26998;48.714;9.414;2023-08-06T05:15:29;3.67;;;2.53;;
41263;SDS011;26998;48.714;9.414;2023-08-06T05:17:59;4.57;;;2.22;;
41263;SDS011;26998;48.714;9.414;2023-08-06T05:20:26;4.30;;;2.20;;
41263;SDS011;26998;48.714;9.414;2023-08-06T05:22:53;6.18;;;2.47;;
41263;SDS011;26998;48.714;9.414;2023-08-06T05:25:20;3.42;;;2.10;;
41263;SDS011;26998;48.714;9.414;2023-08-06T05:27:47;2.30;;;1.98;;
41263;SDS011;26998;48.714;9.414;2023-08-06T05:30:14;6.53;;;1.80;;
41263;SDS011;26998;48.714;9.414;2023-08-06T05:32:42;3.35;;;1.50;;
41263;SDS011;26998;48.714;9.414;2023-08-06T05:35:09;2.00;;;1.30;;
41263;SDS011;26998;48.714;9.414;2023-08-06T05:37:35;2.50;;;1.33;;
41263;SDS011;26998;48.714;9.414;2023-08-06T05:40:02;2.28;;;1.08;;
41263;SDS011;26998;48.714;9.414;2023-08-06T05:42:30;8.23;;;1.67;;
41263;SDS011;26998;48.714;9.414;2023-08-06T05:44:57;2.40;;;1.40;;
41263;SDS011;26998;48.714;9.414;2023-08-06T05:47:24;4.35;;;1.50;;
41263;SDS011;26998;48.714;9.414;2023-08-06T05:49:51;2.88;;;1.40;;
41263;SDS011;26998;48.714;9.414;2023-08-06T05:52:18;3.42;;;1.05;;
41263;SDS011;26998;48.714;9.414;2023-08-06T05:54:45;2.85;;;1.10;;
41263;SDS011;26998;48.714;9.414;2023-08-06T05:57:11;4.57;;;1.85;;
41263;SDS011;26998;48.714;9.414;2023-08-06T05:59:39;3.63;;;0.90;;
41263;SDS011;26998;48.714;9.414;2023-08-06T06:02:07;2.97;;;1.00;;
41263;SDS011;26998;48.714;9.414;2023-08-06T06:04:34;2.97;;;1.33;;
41263;SDS011;26998;48.714;9.414;2023-08-06T06:07:01;3.47;;;1.40;;
41263;SDS011;26998;48.714;9.414;2023-08-06T06:09:27;2.67;;;0.98;;
41263;SDS011;26998;48.714;9.414;2023-08-06T06:11:55;1.92;;;1.05;;
41263;SDS011;26998;48.714;9.414;2023-08-06T06:14:22;2.00;;;1.23;;
41263;SDS011;26998;48.714;9.414;2023-08-06T06:16:49;2.47;;;1.08;;
41263;SDS011;26998;48.714;9.414;2023-08-06T06:19:16;4.00;;;1.00;;
41263;SDS011;26998;48.714;9.414;2023-08-06T06:21:43;2.10;;;1.10;;
41263;SDS011;26998;48.714;9.414;2023-08-06T06:24:10;2.25;;;0.98;;
41263;SDS011;26998;48.714;9.414;2023-08-06T06:26:36;3.05;;;1.10;;
41263;SDS011;26998;48.714;9.414;2023-08-06T06:29:03;2.72;;;1.38;;
41263;SDS011;26998;48.714;9.414;2023-08-06T06:31:33;1.48;;;1.05;;
41263;SDS011;26998;48.714;9.414;2023-08-06T06:34:00;2.45;;;1.10;;
41263;SDS011;26998;48.714;9.414;2023-08-06T06:36:27;4.32;;;1.02;;
41263;SDS011;26998;48.714;9.414;2023-08-06T06:38:55;3.22;;;1.02;;
41263;SDS011;26998;48.714;9.414;2023-08-06T06:41:22;1.77;;;0.82;;
41263;SDS011;26998;48.714;9.414;2023-08-06T06:43:48;3.13;;;1.20;;
41263;SDS011;26998;48.714;9.414;2023-08-06T06:46:15;3.55;;;1.13;;
41263;SDS011;26998;48.714;9.414;2023-08-06T06:48:42;1.23;;;0.68;;
41263;SDS011;26998;48.714;9.414;2023-08-06T06:51:09;2.70;;;1.20;;
41263;SDS011;26998;48.714;9.414;2023-08-06T06:53:36;2.80;;;0.75;;
41263;SDS011;26998;48.714;9.414;2023-08-06T06:56:04;2.00;;;0.75;;
41263;SDS011;26998;48.714;9.414;2023-08-06T06:58:32;2.97;;;0.77;;
41263;SDS011;26998;48.714;9.414;2023-08-06T07:00:59;3.47;;;0.75;;
41263;SDS011;26998;48.714;9.414;2023-08-06T07:03:26;4.07;;;1.33;;
41263;SDS011;26998;48.714;9.414;2023-08-06T07:05:56;2.75;;;0.95;;
41263;SDS011;26998;48.714;9.414;2023-08-06T07:08:24;3.92;;;1.20;;
41263;SDS011;26998;48.714;9.414;2023-08-06T07:10:51;0.98;;;0.80;;
41263;SDS011;26998;48.714;9.414;2023-08-06T07:13:26;1.48;;;0.80;;
41263;SDS011;26998;48.714;9.414;2023-08-06T07:15:53;3.15;;;1.05;;
41263;SDS011;26998;48.714;9.414;2023-08-06T07:18:21;2.33;;;0.70;;
41263;SDS011;26998;48.714;9.414;2023-08-06T07:20:51;1.52;;;0.82;;
41263;SDS011;26998;48.714;9.414;2023-08-06T07:23:20;0.52;;;0.52;;
41263;SDS011;26998;48.714;9.414;2023-08-06T07:25:48;2.35;;;0.60;;
41263;SDS011;26998;48.714;9.414;2023-08-06T07:28:15;2.50;;;0.70;;
41263;SDS011;26998;48.714;9.414;2023-08-06T07:30:42;1.15;;;0.60;;
41263;SDS011;26998;48.714;9.414;2023-08-06T07:33:11;0.70;;;0.57;;
41263;SDS011;26998;48.714;9.414;2023-08-06T07:35:38;0.50;;;0.50;;
41263;SDS011;26998;48.714;9.414;2023-08-06T07:38:05;5.80;;;0.63;;
41263;SDS011;26998;48.714;9.414;2023-08-06T07:40:36;2.17;;;1.08;;
41263;SDS011;26998;48.714;9.414;2023-08-06T07:43:05;0.68;;;0.68;;
41263;SDS011;26998;48.714;9.414;2023-08-06T07:45:33;3.20;;;0.70;;
41263;SDS011;26998;48.714;9.414;2023-08-06T07:48:00;5.82;;;0.60;;
41263;SDS011;26998;48.714;9.414;2023-08-06T07:50:28;0.88;;;0.32;;
41263;SDS011;26998;48.714;9.414;2023-08-06T07:52:55;1.75;;;1.13;;
41263;SDS011;26998;48.714;9.414;2023-08-06T07:55:23;1.40;;;0.88;;
41263;SDS011;26998;48.714;9.414;2023-08-06T07:57:49;3.40;;;0.77;;
41263;SDS011;26998;48.714;9.414;2023-08-06T08:00:16;0.60;;;0.60;;
41263;SDS011;26998;48.714;9.414;2023-08-06T08:02:43;1.45;;;0.30;;
41263;SDS011;26998;48.714;9.414;2023-08-06T08:05:10;1.65;;;0.80;;
41263;SDS011;26998;48.714;9.414;2023-08-06T08:07:38;0.52;;;0.40;;
41263;SDS011;26998;48.714;9.414;2023-08-06T08:10:06;1.00;;;0.70;;
41263;SDS011;26998;48.714;9.414;2023-08-06T08:12:33;0.30;;;0.30;;
41263;SDS011;26998;48.714;9.414;2023-08-06T08:15:00;0.85;;;0.40;;
41263;SDS011;26998;48.714;9.414;2023-08-06T08:17:30;0.95;;;0.35;;
41263;SDS011;26998;48.714;9.414;2023-08-06T08:19:57;0.43;;;0.30;;
41263;SDS011;26998;48.714;9.414;2023-08-06T08:22:24;0.30;;;0.30;;
41263;SDS011;26998;48.714;9.414;2023-08-06T08:24:51;0.50;;;0.22;;
41263;SDS011;26998;48.714;9.414;2023-08-06T08:27:17;0.90;;;0.30;;
41263;SDS011;26998;48.714;9.414;2023-08-06T08:29:44;1.40;;;0.22;;
41263;SDS011;26998;48.714;9.414;2023-08-06T08:32:11;0.73;;;0.20;;
41263;SDS011;26998;48.714;9.414;2023-08-06T08:34:40;0.47;;;0.25;;
41263;SDS011;26998;48.714;9.414;2023-08-06T08:37:07;0.20;;;0.20;;
41263;SDS011;26998;48.714;9.414;2023-08-06T08:39:33;1.00;;;0.30;;
41263;SDS011;26998;48.714;9.414;2023-08-06T08:42:00;0.43;;;0.20;;
41263;SDS011;26998;48.714;9.414;2023-08-06T08:44:27;0.20;;;0.20;;
41263;SDS011;26998;48.714;9.414;2023-08-06T08:46:54;0.30;;;0.30;;
41263;SDS011;26998;48.714;9.414;2023-08-06T08:49:21;0.20;;;0.20;;
41263;SDS011;26998;48.714;9.414;2023-08-06T08:51:50;0.30;;;0.30;;
41263;SDS011;26998;48.714;9.414;2023-08-06T08:54:21;1.30;;;0.20;;
41263;SDS011;26998;48.714;9.414;2023-08-06T08:56:50;0.50;;;0.50;;
41263;SDS011;26998;48.714;9.414;2023-08-06T08:59:18;0.30;;;0.17;;
41263;SDS011;26998;48.714;9.414;2023-08-06T09:01:46;2.17;;;0.45;;
41263;SDS011;26998;48.714;9.414;2023-08-06T09:06:51;0.32;;;0.20;;
41263;SDS011;26998;48.714;9.414;2023-08-06T09:09:31;0.20;;;0.20;;
41263;SDS011;26998;48.714;9.414;2023-08-06T09:12:02;0.10;;;0.10;;
41263;SDS011;26998;48.714;9.414;2023-08-06T09:14:40;0.52;;;0.20;;
41263;SDS011;26998;48.714;9.414;2023-08-06T09:17:08;0.20;;;0.20;;
41263;SDS011;26998;48.714;9.414;2023-08-06T09:19:36;0.40;;;0.22;;
41263;SDS011;26998;48.714;9.414;2023-08-06T09:22:04;0.45;;;0.13;;
41263;SDS011;26998;48.714;9.414;2023-08-06T09:24:32;0.28;;;0.20;;
41263;SDS011;26998;48.714;9.414;2023-08-06T09:27:01;0.10;;;0.10;;
41263;SDS011;26998;48.714;9.414;2023-08-06T09:29:30;0.35;;;0.35;;
41263;SDS011;26998;48.714;9.414;2023-08-06T09:31:59;0.32;;;0.20;;
41263;SDS011;26998;48.714;9.414;2023-08-06T09:34:27;0.20;;;0.10;;
41263;SDS011;26998;48.714;9.414;2023-08-06T09:36:57;0.57;;;0.30;;
41263;SDS011;26998;48.714;9.414;2023-08-06T09:39:28;0.20;;;0.20;;
41263;SDS011;26998;48.714;9.414;2023-08-06T09:42:00;0.30;;;0.30;;
41263;SDS011;26998;48.714;9.414;2023-08-06T09:47:13;0.25;;;0.10;;
41263;SDS011;26998;48.714;9.414;2023-08-06T09:49:44;2.00;;;0.10;;
41263;SDS011;26998;48.714;9.414;2023-08-06T09:52:12;0.10;;;0.10;;
41263;SDS011;26998;48.714;9.414;2023-08-06T09:54:39;0.32;;;0.20;;
41263;SDS011;26998;48.714;9.414;2023-08-06T09:57:06;0.35;;;0.10;;
41263;SDS011;26998;48.714;9.414;2023-08-06T09:59:33;0.20;;;0.20;;
41263;SDS011;26998;48.714;9.414;2023-08-06T10:02:03;0.85;;;0.17;;
41263;SDS011;26998;48.714;9.414;2023-08-06T10:04:41;0.82;;;0.20;;
41263;SDS011;26998;48.714;9.414;2023-08-06T10:07:21;0.10;;;0.10;;
41263;SDS011;26998;48.714;9.414;2023-08-06T10:09:47;0.50;;;0.50;;
41263;SDS011;26998;48.714;9.414;2023-08-06T10:12:14;0.30;;;0.20;;
41263;SDS011;26998;48.714;9.414;2023-08-06T10:14:42;0.25;;;0.25;;
41263;SDS011;26998;48.714;9.414;2023-08-06T10:17:11;2.42;;;0.60;;
41263;SDS011;26998;48.714;9.414;2023-08-06T10:19:41;2.40;;;0.60;;
41263;SDS011;26998;48.714;9.414;2023-08-06T10:22:11;0.20;;;0.20;;
41263;SDS011;26998;48.714;9.414;2023-08-06T10:24:49;1.38;;;0.30;;
41263;SDS011;26998;48.714;9.414;2023-08-06T10:30:29;0.38;;;0.30;;
41263;SDS011;26998;48.714;9.414;2023-08-06T10:33:00;0.88;;;0.40;;
41263;SDS011;26998;48.714;9.414;2023-08-06T10:35:42;0.85;;;0.20;;
41263;SDS011;26998;48.714;9.414;2023-08-06T10:38:17;1.85;;;0.30;;
41263;SDS011;26998;48.714;9.414;2023-08-06T10:43:34;0.20;;;0.20;;
41263;SDS011;26998;48.714;9.414;2023-08-06T10:46:03;0.38;;;0.15;;
41263;SDS011;26998;48.714;9.414;2023-08-06T10:48:36;0.20;;;0.20;;
41263;SDS011;26998;48.714;9.414;2023-08-06T10:51:10;0.25;;;0.20;;
41263;SDS011;26998;48.714;9.414;2023-08-06T10:53:42;0.20;;;0.20;;
41263;SDS011;26998;48.714;9.414;2023-08-06T10:56:14;0.38;;;0.20;;
41263;SDS011;26998;48.714;9.414;2023-08-06T10:58:54;0.30;;;0.30;;
41263;SDS011;26998;48.714;9.414;2023-08-06T11:01:24;0.57;;;0.20;;
41263;SDS011;26998;48.714;9.414;2023-08-06T11:03:54;0.63;;;0.30;;
41263;SDS011;26998;48.714;9.414;2023-08-06T11:06:22;3.30;;;0.30;;
41263;SDS011;26998;48.714;9.414;2023-08-06T11:08:50;0.20;;;0.20;;
41263;SDS011;26998;48.714;9.414;2023-08-06T11:11:18;0.77;;;0.20;;
41263;SDS011;26998;48.714;9.414;2023-08-06T11:13:49;0.30;;;0.10;;
41263;SDS011;26998;48.714;9.414;2023-08-06T11:16:24;0.20;;;0.20;;
41263;SDS011;26998;48.714;9.414;2023-08-06T11:18:51;0.47;;;0.43;;
41263;SDS011;26998;48.714;9.414;2023-08-06T11:21:20;0.40;;;0.20;;
41263;SDS011;26998;48.714;9.414;2023-08-06T11:23:48;0.20;;;0.20;;
41263;SDS011;26998;48.714;9.414;2023-08-06T11:26:24;0.20;;;0.20;;
41263;SDS011;26998;48.714;9.414;2023-08-06T11:28:51;0.35;;;0.13;;
41263;SDS011;26998;48.714;9.414;2023-08-06T11:31:21;0.55;;;0.40;;
41263;SDS011;26998;48.714;9.414;2023-08-06T11:33:52;0.80;;;0.40;;
41263;SDS011;26998;48.714;9.414;2023-08-06T11:41:28;1.85;;;0.30;;
41263;SDS011;26998;48.714;9.414;2023-08-06T11:43:55;1.00;;;0.52;;
41263;SDS011;26998;48.714;9.414;2023-08-06T11:46:23;0.88;;;0.30;;
41263;SDS011;26998;48.714;9.414;2023-08-06T11:48:54;0.32;;;0.30;;
41263;SDS011;26998;48.714;9.414;2023-08-06T11:51:25;0.75;;;0.50;;
41263;SDS011;26998;48.714;9.414;2023-08-06T11:53:56;1.05;;;0.47;;
41263;SDS011;26998;48.714;9.414;2023-08-06T11:56:29;0.75;;;0.40;;
41263;SDS011;26998;48.714;9.414;2023-08-06T11:58:56;1.80;;;0.50;;
41263;SDS011;26998;48.714;9.414;2023-08-06T12:01:22;1.58;;;0.55;;
41263;SDS011;26998;48.714;9.414;2023-08-06T12:03:49;0.80;;;0.60;;
41263;SDS011;26998;48.714;9.414;2023-08-06T12:06:17;0.90;;;0.82;;
41263;SDS011;26998;48.714;9.414;2023-08-06T12:08:46;0.52;;;0.52;;
41263;SDS011;26998;48.714;9.414;2023-08-06T12:11:14;0.47;;;0.47;;
41263;SDS011;26998;48.714;9.414;2023-08-06T12:13:41;1.27;;;0.50;;
41263;SDS011;26998;48.714;9.414;2023-08-06T12:16:12;1.08;;;0.50;;
41263;SDS011;26998;48.714;9.414;2023-08-06T12:18:38;0.70;;;0.70;;
41263;SDS011;26998;48.714;9.414;2023-08-06T12:21:06;0.85;;;0.80;;
41263;SDS011;26998;48.714;9.414;2023-08-06T12:23:33;2.08;;;0.80;;
41263;SDS011;26998;48.714;9.414;2023-08-06T12:26:00;0.68;;;0.52;;
41263;SDS011;26998;48.714;9.414;2023-08-06T12:28:26;0.80;;;0.80;;
41263;SDS011;26998;48.714;9.414;2023-08-06T12:30:53;0.82;;;0.82;;
41263;SDS011;26998;48.714;9.414;2023-08-06T12:33:21;1.00;;;0.88;;
41263;SDS011;26998;48.714;9.414;2023-08-06T12:35:47;1.50;;;0.57;;
41263;SDS011;26998;48.714;9.414;2023-08-06T12:38:14;2.05;;;0.80;;
41263;SDS011;26998;48.714;9.414;2023-08-06T12:40:40;0.80;;;0.80;;
41263;SDS011;26998;48.714;9.414;2023-08-06T12:43:09;0.85;;;0.85;;
41263;SDS011;26998;48.714;9.414;2023-08-06T12:45:43;0.88;;;0.80;;
41263;SDS011;26998;48.714;9.414;2023-08-06T12:48:09;0.75;;;0.60;;
41263;SDS011;26998;48.714;9.414;2023-08-06T12:50:38;1.00;;;0.90;;
41263;SDS011;26998;48.714;9.414;2023-08-06T12:53:04;1.00;;;0.73;;
41263;SDS011;26998;48.714;9.414;2023-08-06T12:55:32;0.90;;;0.82;;
41263;SDS011;26998;48.714;9.414;2023-08-06T12:58:01;1.25;;;1.08;;
41263;SDS011;26998;48.714;9.414;2023-08-06T13:00:27;1.65;;;0.60;;
41263;SDS011;26998;48.714;9.414;2023-08-06T13:02:54;2.45;;;1.13;;
41263;SDS011;26998;48.714;9.414;2023-08-06T13:05:21;1.02;;;0.70;;
41263;SDS011;26998;48.714;9.414;2023-08-06T13:07:51;1.20;;;0.60;;
41263;SDS011;26998;48.714;9.414;2023-08-06T13:10:19;1.20;;;0.85;;
41263;SDS011;26998;48.714;9.414;2023-08-06T13:12:45;1.77;;;0.80;;
41263;SDS011;26998;48.714;9.414;2023-08-06T13:15:12;0.50;;;0.50;;
41263;SDS011;26998;48.714;9.414;2023-08-06T13:17:39;0.85;;;0.80;;
41263;SDS011;26998;48.714;9.414;2023-08-06T13:22:37;1.13;;;0.90;;
41263;SDS011;26998;48.714;9.414;2023-08-06T13:25:03;0.93;;;0.90;;
41263;SDS011;26998;48.714;9.414;2023-08-06T13:27:31;1.60;;;0.88;;
41263;SDS011;26998;48.714;9.414;2023-08-06T13:30:00;0.87;;;0.80;;
41263;SDS011;26998;48.714;9.414;2023-08-06T13:32:27;1.60;;;0.88;;
41263;SDS011;26998;48.714;9.414;2023-08-06T13:34:54;1.38;;;1.10;;
41263;SDS011;26998;48.714;9.414;2023-08-06T13:37:23;0.88;;;0.88;;
41263;SDS011;26998;48.714;9.414;2023-08-06T13:39:49;1.00;;;0.52;;
41263;SDS011;26998;48.714;9.414;2023-08-06T13:42:16;1.17;;;0.90;;
41263;SDS011;26998;48.714;9.414;2023-08-06T13:44:44;0.90;;;0.80;;
41263;SDS011;26998;48.714;9.414;2023-08-06T13:47:11;2.08;;;0.85;;
41263;SDS011;26998;48.714;9.414;2023-08-06T13:49:38;0.80;;;0.80;;
41263;SDS011;26998;48.714;9.414;2023-08-06T13:52:07;1.08;;;0.68;;
41263;SDS011;26998;48.714;9.414;2023-08-06T13:54:47;0.93;;;0.85;;
41263;SDS011;26998;48.714;9.414;2023-08-06T13:57:14;2.90;;;0.75;;
41263;SDS011;26998;48.714;9.414;2023-08-06T13:59:44;1.65;;;0.70;;
41263;SDS011;26998;48.714;9.414;2023-08-06T14:02:15;0.88;;;0.70;;
41263;SDS011;26998;48.714;9.414;2023-08-06T14:04:42;2.78;;;0.50;;
41263;SDS011;26998;48.714;9.414;2023-08-06T14:07:09;0.95;;;0.60;;
41263;SDS011;26998;48.714;9.414;2023-08-06T14:09:39;0.40;;;0.40;;
41263;SDS011;26998;48.714;9.414;2023-08-06T14:12:06;0.50;;;0.50;;
41263;SDS011;26998;48.714;9.414;2023-08-06T14:14:34;2.25;;;0.70;;
41263;SDS011;26998;48.714;9.414;2023-08-06T14:17:02;1.30;;;0.60;;
41263;SDS011;26998;48.714;9.414;2023-08-06T14:19:29;0.80;;;0.55;;
41263;SDS011;26998;48.714;9.414;2023-08-06T14:21:56;2.20;;;0.60;;
41263;SDS011;26998;48.714;9.414;2023-08-06T14:24:22;0.77;;;0.60;;
41263;SDS011;26998;48.714;9.414;2023-08-06T14:26:55;0.80;;;0.60;;
41263;SDS011;26998;48.714;9.414;2023-08-06T14:29:23;0.65;;;0.65;;
41263;SDS011;26998;48.714;9.414;2023-08-06T14:31:50;1.85;;;0.65;;
41263;SDS011;26998;48.714;9.414;2023-08-06T14:34:17;1.33;;;1.08;;
41263;SDS011;26998;48.714;9.414;2023-08-06T14:36:44;0.77;;;0.77;;
41263;SDS011;26998;48.714;9.414;2023-08-06T14:39:12;0.60;;;0.60;;
41263;SDS011;26998;48.714;9.414;2023-08-06T14:41:39;0.75;;;0.70;;
41263;SDS011;26998;48.714;9.414;2023-08-06T14:44:06;0.63;;;0.63;;
41263;SDS011;26998;48.714;9.414;2023-08-06T14:46:34;1.83;;;0.57;;
41263;SDS011;26998;48.714;9.414;2023-08-06T14:49:01;2.05;;;0.70;;
41263;SDS011;26998;48.714;9.414;2023-08-06T14:51:27;1.65;;;0.88;;
41263;SDS011;26998;48.714;9.414;2023-08-06T14:53:54;0.77;;;0.65;;
41263;SDS011;26998;48.714;9.414;2023-08-06T14:56:21;0.80;;;0.47;;
41263;SDS011;26998;48.714;9.414;2023-08-06T14:58:49;3.20;;;0.47;;
41263;SDS011;26998;48.714;9.414;2023-08-06T15:01:15;0.80;;;0.80;;
41263;SDS011;26998;48.714;9.414;2023-08-06T15:03:44;1.30;;;0.80;;
41263;SDS011;26998;48.714;9.414;2023-08-06T15:06:11;0.60;;;0.60;;
41263;SDS011;26998;48.714;9.414;2023-08-06T15:08:37;0.70;;;0.70;;
41263;SDS011;26998;48.714;9.414;2023-08-06T15:11:07;1.52;;;0.82;;
41263;SDS011;26998;48.714;9.414;2023-08-06T15:13:33;1.00;;;0.85;;
41263;SDS011;26998;48.714;9.414;2023-08-06T15:16:00;2.25;;;0.70;;
41263;SDS011;26998;48.714;9.414;2023-08-06T15:18:29;0.60;;;0.60;;